Berge Rishiri — MADD2 — position and weather

sailwx.info

Track history (hours):
 
Tides and Currents Weather Stations Pressure Air Temp Water Temp Dewpoint Dewpoint Depression Visibility Wind Speed Wind Dir Waves Ship Positions

Berge Rishiri

Last reported at 2017-Dec-01 11:43 UTC. Time now 2017-Dec-18 01:39 UTC.
Position N 25°35' W 079°34'.
Warning: this ship's position is 16 days out of date.

Length 180 m; draft 6.4 m.

Type: Cargo ship. MMSI: 232003534.

Date/timePositionNaut miles runAvg speedWind from/ knotsBaromVisibWave heightAir tempDewpointWater temp
2017-Dec-01 11:43N 25°35' W 079°34'210.9
2017-Dec-01 11:30N 25°37' W 079°33'510.8
2017-Dec-01 11:00N 25°43' W 079°32'510.7
2017-Dec-01 10:30N 25°48' W 079°32'510.6
2017-Dec-01 10:00N 25°53' W 079°31'1210.6
2017-Dec-01 08:54N 26°05' W 079°29'410.8
2017-Dec-01 08:30N 26°09' W 079°29'510.8
2017-Dec-01 08:00N 26°14' W 079°27'30710.9
2017-Nov-30 03:47N 31°20' W 080°05'2612.5
2017-Nov-30 01:44N 31°45' W 080°12'412.7
2017-Nov-30 01:25N 31°49' W 080°13'512.6
2017-Nov-30 01:00N 31°54' W 080°14'811.1
2017-Nov-30 00:16N 31°56' W 080°23'4 9.5
2017-Nov-29 23:54N 31°56' W 080°27'4 9.5
2017-Nov-29 23:30N 31°56' W 080°32'5 9.4
2017-Nov-29 23:00N 31°56' W 080°37'5 9.2
2017-Nov-29 22:30N 31°58' W 080°43'510.3
2017-Nov-29 22:00N 32°00' W 080°48'510.7
2017-Nov-29 21:30N 32°02' W 080°54'5 9.7
2017-Nov-29 21:00N 32°04' W 080°59'4 7.6
2017-Nov-29 20:30N 32°05' W 081°03'2 5.0
2017-Nov-29 20:00N 32°05' W 081°06'2 4.0
2017-Nov-29 19:30N 32°07' W 081°07'2 3.3
2017-Nov-29 18:58N 32°05' W 081°06'0 0.0
2017-Nov-29 18:28N 32°05' W 081°06'0 0.0
2017-Nov-29 17:58N 32°05' W 081°06'0 0.0
2017-Nov-29 17:28N 32°05' W 081°06'0 0.0
2017-Nov-29 16:58N 32°05' W 081°06'0 0.0
2017-Nov-29 16:28N 32°05' W 081°06'0 0.0
2017-Nov-29 15:58N 32°05' W 081°06'0 0.0
2017-Nov-29 15:28N 32°05' W 081°06'0 0.0
2017-Nov-29 14:58N 32°05' W 081°06'0 0.0
2017-Nov-29 14:22N 32°05' W 081°06'0 0.0
2017-Nov-29 13:58N 32°05' W 081°06'0 0.0
2017-Nov-29 13:28N 32°05' W 081°06'0 0.0
2017-Nov-29 12:58N 32°05' W 081°06'0 0.0
2017-Nov-29 12:28N 32°05' W 081°06'0 0.0
2017-Nov-29 11:52N 32°05' W 081°06'0 0.0
2017-Nov-29 11:28N 32°05' W 081°06'0 0.0
2017-Nov-29 10:58N 32°05' W 081°06'0 0.0
2017-Nov-29 10:28N 32°05' W 081°06'0 0.0
2017-Nov-29 09:58N 32°05' W 081°06'0 0.0
2017-Nov-29 09:28N 32°05' W 081°06'0 0.0
2017-Nov-29 08:52N 32°05' W 081°06'0 0.0
2017-Nov-29 08:28N 32°05' W 081°06'0 0.0
2017-Nov-29 07:52N 32°05' W 081°06'0 0.0
2017-Nov-29 07:28N 32°05' W 081°06'0 0.0
2017-Nov-29 06:58N 32°05' W 081°06'0 0.0
2017-Nov-29 06:28N 32°05' W 081°06'0 0.0
2017-Nov-29 05:58N 32°05' W 081°06'0 0.0
2017-Nov-29 05:04N 32°05' W 081°06'0 0.0
2017-Nov-29 04:58N 32°05' W 081°06'0 0.0
2017-Nov-29 04:28N 32°05' W 081°06'0 0.0
2017-Nov-29 03:58N 32°05' W 081°06'0 0.0
2017-Nov-29 03:28N 32°05' W 081°06'0 0.0
2017-Nov-29 02:58N 32°05' W 081°06'0 0.0
2017-Nov-29 02:28N 32°05' W 081°06'0 0.0
2017-Nov-29 01:58N 32°05' W 081°06'0 0.0
2017-Nov-29 01:28N 32°05' W 081°06'0 0.0
2017-Nov-29 00:58N 32°05' W 081°06'0 0.0
2017-Nov-29 00:28N 32°05' W 081°06'0 0.0
2017-Nov-28 23:58N 32°05' W 081°06'0 0.0
2017-Nov-28 23:28N 32°05' W 081°06'0 0.0
2017-Nov-28 22:58N 32°05' W 081°06'0 0.0
2017-Nov-28 22:28N 32°05' W 081°06'0 0.0
2017-Nov-28 21:52N 32°05' W 081°06'0 0.0
2017-Nov-28 21:28N 32°05' W 081°06'0 0.0
2017-Nov-28 20:58N 32°05' W 081°06'0 0.0
2017-Nov-28 20:28N 32°05' W 081°06'0 0.0
2017-Nov-28 19:58N 32°05' W 081°06'0 0.0
2017-Nov-28 19:28N 32°05' W 081°06'0 0.0
2017-Nov-28 18:46N 32°05' W 081°06'0 0.0
2017-Nov-28 18:28N 32°05' W 081°06'0 0.0
2017-Nov-28 17:58N 32°05' W 081°06'0 0.0
2017-Nov-28 17:28N 32°05' W 081°06'0 0.0
2017-Nov-28 16:58N 32°05' W 081°06'0 0.0
2017-Nov-28 16:28N 32°05' W 081°06'0 0.0
2017-Nov-28 15:58N 32°05' W 081°06'0 0.0
2017-Nov-28 14:58N 32°05' W 081°06'0 0.0
2017-Nov-28 14:28N 32°05' W 081°06'0 0.0
2017-Nov-28 13:58N 32°05' W 081°06'0 0.0
2017-Nov-28 13:22N 32°05' W 081°06'0 0.0
2017-Nov-28 12:58N 32°05' W 081°06'0 0.0
2017-Nov-28 12:16N 32°05' W 081°06'0 0.0
2017-Nov-28 11:52N 32°05' W 081°06'0 0.0
2017-Nov-28 11:22N 32°05' W 081°06'0 0.0
2017-Nov-28 10:58N 32°05' W 081°06'0 0.0
2017-Nov-28 10:28N 32°05' W 081°06'0 0.0
2017-Nov-28 09:58N 32°05' W 081°06'0 0.0
2017-Nov-28 09:28N 32°05' W 081°06'0 0.0
2017-Nov-28 08:52N 32°05' W 081°06'0 0.0
2017-Nov-28 08:28N 32°05' W 081°06'0 0.0
2017-Nov-28 07:58N 32°05' W 081°06'0 0.0
2017-Nov-28 07:16N 32°05' W 081°06'0 0.0
2017-Nov-28 06:58N 32°05' W 081°06'0 0.0
2017-Nov-28 06:28N 32°05' W 081°06'0 0.0
2017-Nov-28 05:58N 32°05' W 081°06'0 0.0
2017-Nov-28 05:28N 32°05' W 081°06'0 0.0
2017-Nov-28 04:22N 32°05' W 081°06'0 0.0
2017-Nov-28 03:52N 32°05' W 081°06'0 0.0
2017-Nov-28 03:28N 32°05' W 081°06'0 0.0
2017-Nov-28 02:46N 32°05' W 081°06'0 0.0
2017-Nov-28 02:28N 32°05' W 081°06'0 0.0
2017-Nov-28 01:58N 32°05' W 081°06'0 0.0
2017-Nov-28 01:28N 32°05' W 081°06'0 0.0
2017-Nov-28 00:58N 32°05' W 081°06'0 0.0
2017-Nov-28 00:28N 32°05' W 081°06'0 0.0
2017-Nov-27 23:52N 32°05' W 081°06'0 0.0
2017-Nov-27 23:22N 32°05' W 081°06'0 0.0
2017-Nov-27 22:58N 32°05' W 081°06'0 0.0
2017-Nov-27 22:28N 32°05' W 081°06'0 0.0
2017-Nov-27 21:52N 32°05' W 081°06'0 0.0
2017-Nov-27 21:28N 32°05' W 081°06'0 0.0
2017-Nov-27 20:58N 32°05' W 081°06'0 0.0
2017-Nov-27 20:28N 32°05' W 081°06'0 0.0
2017-Nov-27 19:52N 32°05' W 081°06'0 0.0
2017-Nov-27 19:28N 32°05' W 081°06'0 0.0
2017-Nov-27 18:58N 32°05' W 081°06'0 0.0
2017-Nov-27 18:28N 32°05' W 081°06'0 0.0
2017-Nov-27 17:58N 32°05' W 081°06'0 0.0
2017-Nov-27 17:28N 32°05' W 081°06'0 0.0
2017-Nov-27 16:58N 32°05' W 081°06'0 0.0
2017-Nov-27 16:28N 32°05' W 081°06'0 0.0
2017-Nov-27 15:58N 32°05' W 081°06'0 0.0
2017-Nov-27 15:22N 32°05' W 081°06'0 0.0
2017-Nov-27 14:58N 32°05' W 081°06'0 0.0
2017-Nov-27 14:28N 32°05' W 081°06'0 0.0
2017-Nov-27 13:58N 32°05' W 081°06'0 0.0
2017-Nov-27 13:28N 32°05' W 081°06'0 0.0
2017-Nov-27 12:58N 32°05' W 081°06'0 0.0
2017-Nov-27 12:28N 32°05' W 081°06'0 0.0
2017-Nov-27 11:58N 32°05' W 081°06'0 0.0
2017-Nov-27 11:28N 32°05' W 081°06'1 2.1
2017-Nov-27 11:00N 32°05' W 081°05'3 5.7
2017-Nov-27 10:30N 32°05' W 081°02'2 4.2
2017-Nov-27 10:00N 32°05' W 080°59'5 9.5
2017-Nov-27 09:30N 32°02' W 080°55'510.9
2017-Nov-27 09:00N 32°01' W 080°48'612.4
2017-Nov-27 08:30N 31°58' W 080°42'5 9.2
2017-Nov-27 08:00N 31°56' W 080°37'3 5.9
2017-Nov-27 07:30N 31°55' W 080°34'3 5.7
2017-Nov-27 06:59N 31°56' W 080°31'5 8.4
2017-Nov-27 06:25N 31°57' W 080°25'4 8.9
2017-Nov-27 06:00N 31°58' W 080°21'2 5.0
2017-Nov-27 05:30N 31°58' W 080°18'612.1
2017-Nov-27 05:00N 31°60' W 080°11'813.3
2017-Nov-27 04:22N 32°02' W 080°01'41311.1
2017-Nov-25 15:11N 37°09' W 074°25'213.2
2017-Nov-25 15:00N 37°11' W 074°25'713.3
2017-Nov-25 14:30N 37°18' W 074°25'713.5
2017-Nov-25 14:00N 37°24' W 074°25'713.6
2017-Nov-25 13:30N 37°31' W 074°25'713.7
2017-Nov-25 13:00N 37°38' W 074°25'713.5
2017-Nov-25 12:30N 37°45' W 074°25'713.5
2017-Nov-25 11:59N 37°52' W 074°26'713.6
2017-Nov-25 11:30N 37°58' W 074°25'713.6
2017-Nov-25 11:00N 38°05' W 074°25'713.6
2017-Nov-25 10:30N 38°11' W 074°29'713.6
2017-Nov-25 10:00N 38°17' W 074°33'713.8
2017-Nov-25 09:30N 38°23' W 074°39'713.7
2017-Nov-25 09:00N 38°28' W 074°44'613.1
2017-Nov-25 08:30N 38°33' W 074°49'510.2
2017-Nov-25 08:00N 38°37' W 074°53'5 9.9
2017-Nov-25 07:30N 38°41' W 074°57'510.0
2017-Nov-25 07:00N 38°45' W 075°01'5 9.8
2017-Nov-25 06:30N 38°50' W 075°03'5 9.3
2017-Nov-25 06:00N 38°54' W 075°05'612.1
2017-Nov-25 05:30N 38°60' W 075°08'612.5
2017-Nov-25 05:00N 39°05' W 075°11'612.2
2017-Nov-25 04:30N 39°10' W 075°16'612.4
2017-Nov-25 04:00N 39°16' W 075°20'713.0
2017-Nov-25 03:30N 39°20' W 075°26'713.8
2017-Nov-25 03:00N 39°26' W 075°32'713.1
2017-Nov-25 02:30N 39°32' W 075°33'612.8
2017-Nov-25 02:00N 39°38' W 075°34'612.8
2017-Nov-25 01:31N 39°44' W 075°30'611.4
2017-Nov-25 01:01N 39°48' W 075°25'510.5
2017-Nov-25 00:30N 39°51' W 075°19'510.5
2017-Nov-25 00:00N 39°52' W 075°13'4 7.4
2017-Nov-24 23:30N 39°54' W 075°08'0 0.4
2017-Nov-24 22:58N 39°54' W 075°08'0 0.0
2017-Nov-24 22:28N 39°54' W 075°08'0 0.0
2017-Nov-24 21:58N 39°54' W 075°08'0 0.0
2017-Nov-24 21:28N 39°54' W 075°08'0 0.0
2017-Nov-24 20:58N 39°54' W 075°08'0 0.0
2017-Nov-24 20:28N 39°54' W 075°08'0 0.0
2017-Nov-24 19:58N 39°54' W 075°08'0 0.0
2017-Nov-24 19:28N 39°54' W 075°08'0 0.0
2017-Nov-24 18:58N 39°54' W 075°08'0 0.0
2017-Nov-24 18:28N 39°54' W 075°08'0 0.0
2017-Nov-24 17:58N 39°54' W 075°08'0 0.0
2017-Nov-24 17:28N 39°54' W 075°08'0 0.0
2017-Nov-24 16:58N 39°54' W 075°08'0 0.0
2017-Nov-24 16:28N 39°54' W 075°08'0 0.0
2017-Nov-24 15:58N 39°54' W 075°08'0 0.0
2017-Nov-24 15:28N 39°54' W 075°08'0 0.0
2017-Nov-24 14:58N 39°54' W 075°08'0 0.0
2017-Nov-24 14:28N 39°54' W 075°08'0 0.0
2017-Nov-24 13:58N 39°54' W 075°08'0 0.0
2017-Nov-24 13:28N 39°54' W 075°08'0 0.0
2017-Nov-24 12:58N 39°54' W 075°08'0 0.0
2017-Nov-24 12:28N 39°54' W 075°08'0 0.0
2017-Nov-24 11:58N 39°54' W 075°08'0 0.0
2017-Nov-24 11:28N 39°54' W 075°08'0 0.0
2017-Nov-24 10:58N 39°54' W 075°08'0 0.0
2017-Nov-24 10:28N 39°54' W 075°08'0 0.0
2017-Nov-24 09:58N 39°54' W 075°08'0 0.0
2017-Nov-24 09:28N 39°54' W 075°08'0 0.0
2017-Nov-24 08:58N 39°54' W 075°08'0 0.0
2017-Nov-24 08:28N 39°54' W 075°08'0 0.0
2017-Nov-24 07:58N 39°54' W 075°08'0 0.0
2017-Nov-24 07:28N 39°54' W 075°08'0 0.0
2017-Nov-24 06:58N 39°54' W 075°08'0 0.0
2017-Nov-24 06:28N 39°54' W 075°08'0 0.0
2017-Nov-24 05:58N 39°54' W 075°08'0 0.0
2017-Nov-24 05:28N 39°54' W 075°08'0 0.0
2017-Nov-24 04:58N 39°54' W 075°08'0 0.0
2017-Nov-24 04:28N 39°54' W 075°08'0 0.0
2017-Nov-24 03:58N 39°54' W 075°08'0 0.0
2017-Nov-24 03:28N 39°54' W 075°08'0 0.0
2017-Nov-24 02:58N 39°54' W 075°08'0 0.0
2017-Nov-24 02:28N 39°54' W 075°08'0 0.0
2017-Nov-24 01:58N 39°54' W 075°08'0 0.0
2017-Nov-24 01:28N 39°54' W 075°08'0 0.0
2017-Nov-24 00:58N 39°54' W 075°08'0 0.0
2017-Nov-24 00:28N 39°54' W 075°08'0 0.0
2017-Nov-23 23:58N 39°54' W 075°08'0 0.0
2017-Nov-23 23:28N 39°54' W 075°08'0 0.0
2017-Nov-23 22:58N 39°54' W 075°08'0 0.0
2017-Nov-23 22:28N 39°54' W 075°08'0 0.0
2017-Nov-23 21:58N 39°54' W 075°08'0 0.0
2017-Nov-23 21:28N 39°54' W 075°08'0 0.0
2017-Nov-23 20:58N 39°54' W 075°08'0 0.0
2017-Nov-23 20:28N 39°54' W 075°08'0 0.0
2017-Nov-23 19:58N 39°54' W 075°08'0 0.0
2017-Nov-23 19:28N 39°54' W 075°08'0 0.0
2017-Nov-23 18:58N 39°54' W 075°08'0 0.0
2017-Nov-23 18:28N 39°54' W 075°08'0 0.0
2017-Nov-23 17:58N 39°54' W 075°08'0 0.0
2017-Nov-23 17:28N 39°54' W 075°08'0 0.0
2017-Nov-23 16:58N 39°54' W 075°08'0 0.0
2017-Nov-23 16:28N 39°54' W 075°08'0 0.0
2017-Nov-23 15:58N 39°54' W 075°08'0 0.0
2017-Nov-23 15:28N 39°54' W 075°08'0 0.0
2017-Nov-23 14:58N 39°54' W 075°08'0 0.0
2017-Nov-23 14:25N 39°54' W 075°08'0 0.0
2017-Nov-23 13:58N 39°54' W 075°08'0 0.0
2017-Nov-23 13:28N 39°54' W 075°08'0 0.0
2017-Nov-23 12:34N 39°54' W 075°08'0 0.0
2017-Nov-23 12:28N 39°54' W 075°08'0 0.0
2017-Nov-23 11:58N 39°54' W 075°08'0 0.0
2017-Nov-23 11:28N 39°54' W 075°08'0 0.0
2017-Nov-23 10:58N 39°54' W 075°08'0 0.0
2017-Nov-23 10:28N 39°54' W 075°08'0 0.0
2017-Nov-23 09:58N 39°54' W 075°08'0 0.0
2017-Nov-23 09:28N 39°54' W 075°08'0 0.0
2017-Nov-23 08:58N 39°54' W 075°08'0 0.0
2017-Nov-23 08:28N 39°54' W 075°08'0 0.0
2017-Nov-23 07:58N 39°54' W 075°08'0 0.0
2017-Nov-23 07:28N 39°54' W 075°08'0 0.0
2017-Nov-23 06:58N 39°54' W 075°08'0 0.0
2017-Nov-23 06:28N 39°54' W 075°08'0 0.0
2017-Nov-23 05:58N 39°54' W 075°08'0 0.0
2017-Nov-23 05:28N 39°54' W 075°08'0 0.0
2017-Nov-23 04:58N 39°54' W 075°08'0 0.0
2017-Nov-23 04:28N 39°54' W 075°08'0 0.0
2017-Nov-23 03:58N 39°54' W 075°08'0 0.0
2017-Nov-23 03:28N 39°54' W 075°08'0 0.0
2017-Nov-23 02:58N 39°54' W 075°08'0 0.0
2017-Nov-23 02:28N 39°54' W 075°08'0 0.0
2017-Nov-23 01:58N 39°54' W 075°08'0 0.0
2017-Nov-23 01:28N 39°54' W 075°08'0 0.0
2017-Nov-23 00:58N 39°54' W 075°08'0 0.0
2017-Nov-23 00:28N 39°54' W 075°08'0 0.0
2017-Nov-22 23:58N 39°54' W 075°08'0 0.0
2017-Nov-22 23:28N 39°54' W 075°08'0 0.0
2017-Nov-22 22:58N 39°54' W 075°08'0 0.0
2017-Nov-22 22:28N 39°54' W 075°08'0 0.0
2017-Nov-22 21:58N 39°54' W 075°08'0 0.0
2017-Nov-22 21:28N 39°54' W 075°08'0 0.0
2017-Nov-22 20:58N 39°54' W 075°08'0 0.0
2017-Nov-22 20:28N 39°54' W 075°08'0 0.0
2017-Nov-22 19:58N 39°54' W 075°08'0 0.0
2017-Nov-22 19:28N 39°54' W 075°08'  
Track history (hours):
 
Tides and Currents Weather Stations Pressure Air Temp Water Temp Dewpoint Dewpoint Depression Visibility Wind Speed Wind Dir Waves Ship Positions

Berge Rishiri

Last reported at 2017-Dec-01 11:43 UTC. Time now 2017-Dec-18 01:39 UTC.
Position N 25°35' W 079°34'.
Warning: this ship's position is 16 days out of date.

Length 180 m; draft 6.4 m.

Type: Cargo ship. MMSI: 232003534.

Date/timePositionNaut miles runAvg speedWind from/ knotsBaromVisibWave heightAir tempDewpointWater temp
2017-Dec-01 11:43N 25°35' W 079°34'210.9
2017-Dec-01 11:30N 25°37' W 079°33'510.8
2017-Dec-01 11:00N 25°43' W 079°32'510.7
2017-Dec-01 10:30N 25°48' W 079°32'510.6
2017-Dec-01 10:00N 25°53' W 079°31'1210.6
2017-Dec-01 08:54N 26°05' W 079°29'410.8
2017-Dec-01 08:30N 26°09' W 079°29'510.8
2017-Dec-01 08:00N 26°14' W 079°27'30710.9
2017-Nov-30 03:47N 31°20' W 080°05'2612.5
2017-Nov-30 01:44N 31°45' W 080°12'412.7
2017-Nov-30 01:25N 31°49' W 080°13'512.6
2017-Nov-30 01:00N 31°54' W 080°14'811.1
2017-Nov-30 00:16N 31°56' W 080°23'4 9.5
2017-Nov-29 23:54N 31°56' W 080°27'4 9.5
2017-Nov-29 23:30N 31°56' W 080°32'5 9.4
2017-Nov-29 23:00N 31°56' W 080°37'5 9.2
2017-Nov-29 22:30N 31°58' W 080°43'510.3
2017-Nov-29 22:00N 32°00' W 080°48'510.7
2017-Nov-29 21:30N 32°02' W 080°54'5 9.7
2017-Nov-29 21:00N 32°04' W 080°59'4 7.6
2017-Nov-29 20:30N 32°05' W 081°03'2 5.0
2017-Nov-29 20:00N 32°05' W 081°06'2 4.0
2017-Nov-29 19:30N 32°07' W 081°07'2 3.3
2017-Nov-29 18:58N 32°05' W 081°06'0 0.0
2017-Nov-29 18:28N 32°05' W 081°06'0 0.0
2017-Nov-29 17:58N 32°05' W 081°06'0 0.0
2017-Nov-29 17:28N 32°05' W 081°06'0 0.0
2017-Nov-29 16:58N 32°05' W 081°06'0 0.0
2017-Nov-29 16:28N 32°05' W 081°06'0 0.0
2017-Nov-29 15:58N 32°05' W 081°06'0 0.0
2017-Nov-29 15:28N 32°05' W 081°06'0 0.0
2017-Nov-29 14:58N 32°05' W 081°06'0 0.0
2017-Nov-29 14:22N 32°05' W 081°06'0 0.0
2017-Nov-29 13:58N 32°05' W 081°06'0 0.0
2017-Nov-29 13:28N 32°05' W 081°06'0 0.0
2017-Nov-29 12:58N 32°05' W 081°06'0 0.0
2017-Nov-29 12:28N 32°05' W 081°06'0 0.0
2017-Nov-29 11:52N 32°05' W 081°06'0 0.0
2017-Nov-29 11:28N 32°05' W 081°06'0 0.0
2017-Nov-29 10:58N 32°05' W 081°06'0 0.0
2017-Nov-29 10:28N 32°05' W 081°06'0 0.0
2017-Nov-29 09:58N 32°05' W 081°06'0 0.0
2017-Nov-29 09:28N 32°05' W 081°06'0 0.0
2017-Nov-29 08:52N 32°05' W 081°06'0 0.0
2017-Nov-29 08:28N 32°05' W 081°06'0 0.0
2017-Nov-29 07:52N 32°05' W 081°06'0 0.0
2017-Nov-29 07:28N 32°05' W 081°06'0 0.0
2017-Nov-29 06:58N 32°05' W 081°06'0 0.0
2017-Nov-29 06:28N 32°05' W 081°06'0 0.0
2017-Nov-29 05:58N 32°05' W 081°06'0 0.0
2017-Nov-29 05:04N 32°05' W 081°06'0 0.0
2017-Nov-29 04:58N 32°05' W 081°06'0 0.0
2017-Nov-29 04:28N 32°05' W 081°06'0 0.0
2017-Nov-29 03:58N 32°05' W 081°06'0 0.0
2017-Nov-29 03:28N 32°05' W 081°06'0 0.0
2017-Nov-29 02:58N 32°05' W 081°06'0 0.0
2017-Nov-29 02:28N 32°05' W 081°06'0 0.0
2017-Nov-29 01:58N 32°05' W 081°06'0 0.0
2017-Nov-29 01:28N 32°05' W 081°06'0 0.0
2017-Nov-29 00:58N 32°05' W 081°06'0 0.0
2017-Nov-29 00:28N 32°05' W 081°06'0 0.0
2017-Nov-28 23:58N 32°05' W 081°06'0 0.0
2017-Nov-28 23:28N 32°05' W 081°06'0 0.0
2017-Nov-28 22:58N 32°05' W 081°06'0 0.0
2017-Nov-28 22:28N 32°05' W 081°06'0 0.0
2017-Nov-28 21:52N 32°05' W 081°06'0 0.0
2017-Nov-28 21:28N 32°05' W 081°06'0 0.0
2017-Nov-28 20:58N 32°05' W 081°06'0 0.0
2017-Nov-28 20:28N 32°05' W 081°06'0 0.0
2017-Nov-28 19:58N 32°05' W 081°06'0 0.0
2017-Nov-28 19:28N 32°05' W 081°06'0 0.0
2017-Nov-28 18:46N 32°05' W 081°06'0 0.0
2017-Nov-28 18:28N 32°05' W 081°06'0 0.0
2017-Nov-28 17:58N 32°05' W 081°06'0 0.0
2017-Nov-28 17:28N 32°05' W 081°06'0 0.0
2017-Nov-28 16:58N 32°05' W 081°06'0 0.0
2017-Nov-28 16:28N 32°05' W 081°06'0 0.0
2017-Nov-28 15:58N 32°05' W 081°06'0 0.0
2017-Nov-28 14:58N 32°05' W 081°06'0 0.0
2017-Nov-28 14:28N 32°05' W 081°06'0 0.0
2017-Nov-28 13:58N 32°05' W 081°06'0 0.0
2017-Nov-28 13:22N 32°05' W 081°06'0 0.0
2017-Nov-28 12:58N 32°05' W 081°06'0 0.0
2017-Nov-28 12:16N 32°05' W 081°06'0 0.0
2017-Nov-28 11:52N 32°05' W 081°06'0 0.0
2017-Nov-28 11:22N 32°05' W 081°06'0 0.0
2017-Nov-28 10:58N 32°05' W 081°06'0 0.0
2017-Nov-28 10:28N 32°05' W 081°06'0 0.0
2017-Nov-28 09:58N 32°05' W 081°06'0 0.0
2017-Nov-28 09:28N 32°05' W 081°06'0 0.0
2017-Nov-28 08:52N 32°05' W 081°06'0 0.0
2017-Nov-28 08:28N 32°05' W 081°06'0 0.0
2017-Nov-28 07:58N 32°05' W 081°06'0 0.0
2017-Nov-28 07:16N 32°05' W 081°06'0 0.0
2017-Nov-28 06:58N 32°05' W 081°06'0 0.0
2017-Nov-28 06:28N 32°05' W 081°06'0 0.0
2017-Nov-28 05:58N 32°05' W 081°06'0 0.0
2017-Nov-28 05:28N 32°05' W 081°06'0 0.0
2017-Nov-28 04:22N 32°05' W 081°06'0 0.0
2017-Nov-28 03:52N 32°05' W 081°06'0 0.0
2017-Nov-28 03:28N 32°05' W 081°06'0 0.0
2017-Nov-28 02:46N 32°05' W 081°06'0 0.0
2017-Nov-28 02:28N 32°05' W 081°06'0 0.0
2017-Nov-28 01:58N 32°05' W 081°06'0 0.0
2017-Nov-28 01:28N 32°05' W 081°06'0 0.0
2017-Nov-28 00:58N 32°05' W 081°06'0 0.0
2017-Nov-28 00:28N 32°05' W 081°06'0 0.0
2017-Nov-27 23:52N 32°05' W 081°06'0 0.0
2017-Nov-27 23:22N 32°05' W 081°06'0 0.0
2017-Nov-27 22:58N 32°05' W 081°06'0 0.0
2017-Nov-27 22:28N 32°05' W 081°06'0 0.0
2017-Nov-27 21:52N 32°05' W 081°06'0 0.0
2017-Nov-27 21:28N 32°05' W 081°06'0 0.0
2017-Nov-27 20:58N 32°05' W 081°06'0 0.0
2017-Nov-27 20:28N 32°05' W 081°06'0 0.0
2017-Nov-27 19:52N 32°05' W 081°06'0 0.0
2017-Nov-27 19:28N 32°05' W 081°06'0 0.0
2017-Nov-27 18:58N 32°05' W 081°06'0 0.0
2017-Nov-27 18:28N 32°05' W 081°06'0 0.0
2017-Nov-27 17:58N 32°05' W 081°06'0 0.0
2017-Nov-27 17:28N 32°05' W 081°06'0 0.0
2017-Nov-27 16:58N 32°05' W 081°06'0 0.0
2017-Nov-27 16:28N 32°05' W 081°06'0 0.0
2017-Nov-27 15:58N 32°05' W 081°06'0 0.0
2017-Nov-27 15:22N 32°05' W 081°06'0 0.0
2017-Nov-27 14:58N 32°05' W 081°06'0 0.0
2017-Nov-27 14:28N 32°05' W 081°06'0 0.0
2017-Nov-27 13:58N 32°05' W 081°06'0 0.0
2017-Nov-27 13:28N 32°05' W 081°06'0 0.0
2017-Nov-27 12:58N 32°05' W 081°06'0 0.0
2017-Nov-27 12:28N 32°05' W 081°06'0 0.0
2017-Nov-27 11:58N 32°05' W 081°06'0 0.0
2017-Nov-27 11:28N 32°05' W 081°06'1 2.1
2017-Nov-27 11:00N 32°05' W 081°05'3 5.7
2017-Nov-27 10:30N 32°05' W 081°02'2 4.2
2017-Nov-27 10:00N 32°05' W 080°59'5 9.5
2017-Nov-27 09:30N 32°02' W 080°55'510.9
2017-Nov-27 09:00N 32°01' W 080°48'612.4
2017-Nov-27 08:30N 31°58' W 080°42'5 9.2
2017-Nov-27 08:00N 31°56' W 080°37'3 5.9
2017-Nov-27 07:30N 31°55' W 080°34'3 5.7
2017-Nov-27 06:59N 31°56' W 080°31'5 8.4
2017-Nov-27 06:25N 31°57' W 080°25'4 8.9
2017-Nov-27 06:00N 31°58' W 080°21'2 5.0
2017-Nov-27 05:30N 31°58' W 080°18'612.1
2017-Nov-27 05:00N 31°60' W 080°11'813.3
2017-Nov-27 04:22N 32°02' W 080°01'41311.1
2017-Nov-25 15:11N 37°09' W 074°25'213.2
2017-Nov-25 15:00N 37°11' W 074°25'713.3
2017-Nov-25 14:30N 37°18' W 074°25'713.5
2017-Nov-25 14:00N 37°24' W 074°25'713.6
2017-Nov-25 13:30N 37°31' W 074°25'713.7
2017-Nov-25 13:00N 37°38' W 074°25'713.5
2017-Nov-25 12:30N 37°45' W 074°25'713.5
2017-Nov-25 11:59N 37°52' W 074°26'713.6
2017-Nov-25 11:30N 37°58' W 074°25'713.6
2017-Nov-25 11:00N 38°05' W 074°25'713.6
2017-Nov-25 10:30N 38°11' W 074°29'713.6
2017-Nov-25 10:00N 38°17' W 074°33'713.8
2017-Nov-25 09:30N 38°23' W 074°39'713.7
2017-Nov-25 09:00N 38°28' W 074°44'613.1
2017-Nov-25 08:30N 38°33' W 074°49'510.2
2017-Nov-25 08:00N 38°37' W 074°53'5 9.9
2017-Nov-25 07:30N 38°41' W 074°57'510.0
2017-Nov-25 07:00N 38°45' W 075°01'5 9.8
2017-Nov-25 06:30N 38°50' W 075°03'5 9.3
2017-Nov-25 06:00N 38°54' W 075°05'612.1
2017-Nov-25 05:30N 38°60' W 075°08'612.5
2017-Nov-25 05:00N 39°05' W 075°11'612.2
2017-Nov-25 04:30N 39°10' W 075°16'612.4
2017-Nov-25 04:00N 39°16' W 075°20'713.0
2017-Nov-25 03:30N 39°20' W 075°26'713.8
2017-Nov-25 03:00N 39°26' W 075°32'713.1
2017-Nov-25 02:30N 39°32' W 075°33'612.8
2017-Nov-25 02:00N 39°38' W 075°34'612.8
2017-Nov-25 01:31N 39°44' W 075°30'611.4
2017-Nov-25 01:01N 39°48' W 075°25'510.5
2017-Nov-25 00:30N 39°51' W 075°19'510.5
2017-Nov-25 00:00N 39°52' W 075°13'4 7.4
2017-Nov-24 23:30N 39°54' W 075°08'0 0.4
2017-Nov-24 22:58N 39°54' W 075°08'0 0.0
2017-Nov-24 22:28N 39°54' W 075°08'0 0.0
2017-Nov-24 21:58N 39°54' W 075°08'0 0.0
2017-Nov-24 21:28N 39°54' W 075°08'0 0.0
2017-Nov-24 20:58N 39°54' W 075°08'0 0.0
2017-Nov-24 20:28N 39°54' W 075°08'0 0.0
2017-Nov-24 19:58N 39°54' W 075°08'0 0.0
2017-Nov-24 19:28N 39°54' W 075°08'0 0.0
2017-Nov-24 18:58N 39°54' W 075°08'0 0.0
2017-Nov-24 18:28N 39°54' W 075°08'0 0.0
2017-Nov-24 17:58N 39°54' W 075°08'0 0.0
2017-Nov-24 17:28N 39°54' W 075°08'0 0.0
2017-Nov-24 16:58N 39°54' W 075°08'0 0.0
2017-Nov-24 16:28N 39°54' W 075°08'0 0.0
2017-Nov-24 15:58N 39°54' W 075°08'0 0.0
2017-Nov-24 15:28N 39°54' W 075°08'0 0.0
2017-Nov-24 14:58N 39°54' W 075°08'0 0.0
2017-Nov-24 14:28N 39°54' W 075°08'0 0.0
2017-Nov-24 13:58N 39°54' W 075°08'0 0.0
2017-Nov-24 13:28N 39°54' W 075°08'0 0.0
2017-Nov-24 12:58N 39°54' W 075°08'0 0.0
2017-Nov-24 12:28N 39°54' W 075°08'0 0.0
2017-Nov-24 11:58N 39°54' W 075°08'0 0.0
2017-Nov-24 11:28N 39°54' W 075°08'0 0.0
2017-Nov-24 10:58N 39°54' W 075°08'0 0.0
2017-Nov-24 10:28N 39°54' W 075°08'0 0.0
2017-Nov-24 09:58N 39°54' W 075°08'0 0.0
2017-Nov-24 09:28N 39°54' W 075°08'0 0.0
2017-Nov-24 08:58N 39°54' W 075°08'0 0.0
2017-Nov-24 08:28N 39°54' W 075°08'0 0.0
2017-Nov-24 07:58N 39°54' W 075°08'0 0.0
2017-Nov-24 07:28N 39°54' W 075°08'0 0.0
2017-Nov-24 06:58N 39°54' W 075°08'0 0.0
2017-Nov-24 06:28N 39°54' W 075°08'0 0.0
2017-Nov-24 05:58N 39°54' W 075°08'0 0.0
2017-Nov-24 05:28N 39°54' W 075°08'0 0.0
2017-Nov-24 04:58N 39°54' W 075°08'0 0.0
2017-Nov-24 04:28N 39°54' W 075°08'0 0.0
2017-Nov-24 03:58N 39°54' W 075°08'0 0.0
2017-Nov-24 03:28N 39°54' W 075°08'0 0.0
2017-Nov-24 02:58N 39°54' W 075°08'0 0.0
2017-Nov-24 02:28N 39°54' W 075°08'0 0.0
2017-Nov-24 01:58N 39°54' W 075°08'0 0.0
2017-Nov-24 01:28N 39°54' W 075°08'0 0.0
2017-Nov-24 00:58N 39°54' W 075°08'0 0.0
2017-Nov-24 00:28N 39°54' W 075°08'0 0.0
2017-Nov-23 23:58N 39°54' W 075°08'0 0.0
2017-Nov-23 23:28N 39°54' W 075°08'0 0.0
2017-Nov-23 22:58N 39°54' W 075°08'0 0.0
2017-Nov-23 22:28N 39°54' W 075°08'0 0.0
2017-Nov-23 21:58N 39°54' W 075°08'0 0.0
2017-Nov-23 21:28N 39°54' W 075°08'0 0.0
2017-Nov-23 20:58N 39°54' W 075°08'0 0.0
2017-Nov-23 20:28N 39°54' W 075°08'0 0.0
2017-Nov-23 19:58N 39°54' W 075°08'0 0.0
2017-Nov-23 19:28N 39°54' W 075°08'0 0.0
2017-Nov-23 18:58N 39°54' W 075°08'0 0.0
2017-Nov-23 18:28N 39°54' W 075°08'0 0.0
2017-Nov-23 17:58N 39°54' W 075°08'0 0.0
2017-Nov-23 17:28N 39°54' W 075°08'0 0.0
2017-Nov-23 16:58N 39°54' W 075°08'0 0.0
2017-Nov-23 16:28N 39°54' W 075°08'0 0.0
2017-Nov-23 15:58N 39°54' W 075°08'0 0.0
2017-Nov-23 15:28N 39°54' W 075°08'0 0.0
2017-Nov-23 14:58N 39°54' W 075°08'0 0.0
2017-Nov-23 14:25N 39°54' W 075°08'0 0.0
2017-Nov-23 13:58N 39°54' W 075°08'0 0.0
2017-Nov-23 13:28N 39°54' W 075°08'0 0.0
2017-Nov-23 12:34N 39°54' W 075°08'0 0.0
2017-Nov-23 12:28N 39°54' W 075°08'0 0.0
2017-Nov-23 11:58N 39°54' W 075°08'0 0.0
2017-Nov-23 11:28N 39°54' W 075°08'0 0.0
2017-Nov-23 10:58N 39°54' W 075°08'0 0.0
2017-Nov-23 10:28N 39°54' W 075°08'0 0.0
2017-Nov-23 09:58N 39°54' W 075°08'0 0.0
2017-Nov-23 09:28N 39°54' W 075°08'0 0.0
2017-Nov-23 08:58N 39°54' W 075°08'0 0.0
2017-Nov-23 08:28N 39°54' W 075°08'0 0.0
2017-Nov-23 07:58N 39°54' W 075°08'0 0.0
2017-Nov-23 07:28N 39°54' W 075°08'0 0.0
2017-Nov-23 06:58N 39°54' W 075°08'0 0.0
2017-Nov-23 06:28N 39°54' W 075°08'0 0.0
2017-Nov-23 05:58N 39°54' W 075°08'0 0.0
2017-Nov-23 05:28N 39°54' W 075°08'0 0.0
2017-Nov-23 04:58N 39°54' W 075°08'0 0.0
2017-Nov-23 04:28N 39°54' W 075°08'0 0.0
2017-Nov-23 03:58N 39°54' W 075°08'0 0.0
2017-Nov-23 03:28N 39°54' W 075°08'0 0.0
2017-Nov-23 02:58N 39°54' W 075°08'0 0.0
2017-Nov-23 02:28N 39°54' W 075°08'0 0.0
2017-Nov-23 01:58N 39°54' W 075°08'0 0.0
2017-Nov-23 01:28N 39°54' W 075°08'0 0.0
2017-Nov-23 00:58N 39°54' W 075°08'0 0.0
2017-Nov-23 00:28N 39°54' W 075°08'0 0.0
2017-Nov-22 23:58N 39°54' W 075°08'0 0.0
2017-Nov-22 23:28N 39°54' W 075°08'0 0.0
2017-Nov-22 22:58N 39°54' W 075°08'0 0.0
2017-Nov-22 22:28N 39°54' W 075°08'0 0.0
2017-Nov-22 21:58N 39°54' W 075°08'0 0.0
2017-Nov-22 21:28N 39°54' W 075°08'0 0.0
2017-Nov-22 20:58N 39°54' W 075°08'0 0.0
2017-Nov-22 20:28N 39°54' W 075°08'0 0.0
2017-Nov-22 19:58N 39°54' W 075°08'0 0.0
2017-Nov-22 19:28N 39°54' W 075°08'  

Dump ship's entire track history